Time;durP1;ratioP1;P1;durP2;ratioP2;P2;SDS_P1;SDS_P2;PMS_P1;PMS_P2;Temp;Humidity;BMP_temperature;BMP_pressure;BME280_temperature;BME280_humidity;BME280_pressure;Samples;Min_cycle;Max_cycle;Signal;HPM_P1;HPM_P2
2023/03/18 00:00:47;;;;;;;6.00;1.80;;;11.80;99.90;;;;;;5122558;27;20174;-65
2023/03/18 00:03:12;;;;;;;7.97;1.60;;;11.60;99.90;;;;;;5126859;27;20532;-65
2023/03/18 00:05:39;;;;;;;6.17;1.60;;;11.60;99.90;;;;;;5119739;27;20171;-65
2023/03/18 00:08:05;;;;;;;8.80;1.60;;;11.60;99.90;;;;;;5122505;27;20179;-64
2023/03/18 00:10:33;;;;;;;4.20;1.40;;;11.60;99.90;;;;;;5115204;27;20685;-64
2023/03/18 00:13:00;;;;;;;4.13;1.23;;;;;;;;;;5127266;27;20195;-65
2023/03/18 00:15:26;;;;;;;5.43;2.30;;;11.60;99.90;;;;;;5133493;27;20175;-65
2023/03/18 00:17:52;;;;;;;3.47;1.67;;;11.60;99.90;;;;;;5133811;27;20209;-65
2023/03/18 00:20:27;;;;;;;5.63;1.70;;;11.60;99.90;;;;;;5128663;27;20174;-65
2023/03/18 00:22:54;;;;;;;4.43;1.90;;;11.60;99.90;;;;;;5113307;28;20288;-65
2023/03/18 00:25:20;;;;;;;5.10;1.70;;;11.50;99.90;;;;;;5130118;27;20173;-65
2023/03/18 00:27:46;;;;;;;5.80;1.80;;;11.60;99.90;;;;;;5133782;27;20666;-65
2023/03/18 00:30:12;;;;;;;5.23;1.50;;;11.60;99.90;;;;;;5134027;27;20162;-65
2023/03/18 00:32:38;;;;;;;6.37;1.33;;;11.60;99.90;;;;;;5134073;27;20221;-65
2023/03/18 00:35:04;;;;;;;5.63;1.50;;;12.00;99.90;;;;;;5133821;27;20580;-65
2023/03/18 00:37:30;;;;;;;4.90;1.47;;;11.70;99.90;;;;;;5133514;27;20208;-65
2023/03/18 00:40:05;;;;;;;4.53;1.43;;;11.40;99.90;;;;;;5132758;27;20648;-65
2023/03/18 00:42:37;;;;;;;5.13;1.60;;;11.70;99.90;;;;;;5132414;27;20215;-65
2023/03/18 00:45:06;;;;;;;6.10;1.57;;;11.60;99.90;;;;;;5133014;27;20249;-65
2023/03/18 00:47:32;;;;;;;5.10;1.47;;;11.70;99.90;;;;;;5132399;27;20296;-65
2023/03/18 00:49:57;;;;;;;2.67;1.27;;;11.70;99.90;;;;;;5131402;27;20261;-66
2023/03/18 00:52:24;;;;;;;4.43;1.20;;;11.50;99.90;;;;;;5132838;27;20588;-66
2023/03/18 00:54:49;;;;;;;2.87;1.10;;;11.60;99.90;;;;;;5116704;27;20225;-66
2023/03/18 00:57:15;;;;;;;3.47;1.33;;;11.50;99.90;;;;;;5113210;28;20207;-66
2023/03/18 00:59:41;;;;;;;2.80;1.00;;;11.50;99.90;;;;;;5122226;27;20215;-66
2023/03/18 01:02:07;;;;;;;3.83;1.10;;;11.50;99.90;;;;;;5118025;27;20478;-66
2023/03/18 01:04:33;;;;;;;4.80;1.20;;;11.50;99.90;;;;;;5126507;27;20645;-66
2023/03/18 01:06:58;;;;;;;3.73;1.10;;;11.50;99.90;;;;;;5124057;27;20662;-65
2023/03/18 01:09:24;;;;;;;6.90;1.40;;;11.50;99.90;;;;;;5132283;27;20245;-65
2023/03/18 01:11:50;;;;;;;3.13;1.00;;;;;;;;;;5125104;27;20262;-65
2023/03/18 01:14:16;;;;;;;3.93;1.30;;;11.50;99.90;;;;;;5117859;27;20171;-66
2023/03/18 01:16:42;;;;;;;6.27;1.50;;;11.40;99.90;;;;;;5131706;27;20206;-65
2023/03/18 01:19:08;;;;;;;6.03;1.70;;;11.50;99.90;;;;;;5116105;27;20282;-65
2023/03/18 01:21:34;;;;;;;4.77;1.43;;;11.50;99.90;;;;;;5129136;27;20208;-65
2023/03/18 01:23:59;;;;;;;4.50;1.80;;;11.50;99.90;;;;;;5120178;27;20174;-66
2023/03/18 01:26:25;;;;;;;6.77;2.10;;;11.50;99.90;;;;;;5130682;27;20178;-66
2023/03/18 01:28:51;;;;;;;4.23;1.70;;;11.60;99.90;;;;;;5129909;27;20230;-66
2023/03/18 01:31:17;;;;;;;8.37;1.73;;;11.50;99.90;;;;;;5130238;27;20227;-66
2023/03/18 01:33:44;;;;;;;8.30;1.80;;;11.50;99.90;;;;;;5125814;27;20677;-65
2023/03/18 01:36:10;;;;;;;12.67;2.27;;;11.60;99.90;;;;;;5124602;27;20203;-66
2023/03/18 01:38:36;;;;;;;6.07;1.90;;;11.40;99.90;;;;;;5130910;27;20178;-66
2023/03/18 01:41:03;;;;;;;8.93;2.00;;;11.50;99.90;;;;;;5116422;27;20198;-66
2023/03/18 01:43:33;;;;;;;8.20;1.73;;;11.80;99.90;;;;;;5115736;27;20175;-66
2023/03/18 01:46:01;;;;;;;8.63;1.90;;;11.50;99.90;;;;;;5126695;27;20167;-66
2023/03/18 01:48:29;;;;;;;11.10;2.13;;;11.40;99.90;;;;;;5119147;27;20186;-68
2023/03/18 01:51:06;;;;;;;11.00;1.97;;;11.50;99.90;;;;;;5119876;27;20166;-67
2023/03/18 01:53:37;;;;;;;8.93;1.80;;;11.60;99.90;;;;;;5116346;27;20186;-66
2023/03/18 01:56:05;;;;;;;9.00;2.57;;;11.50;99.90;;;;;;5120086;27;20202;-66
2023/03/18 01:58:36;;;;;;;8.07;1.67;;;11.50;99.90;;;;;;5096586;28;20533;-66
2023/03/18 02:01:32;;;;;;;6.73;1.80;;;11.40;99.90;;;;;;5126859;27;20175;-66
2023/03/18 02:04:01;;;;;;;7.37;1.70;;;11.60;99.90;;;;;;5111406;28;20258;-66
2023/03/18 02:06:26;;;;;;;8.70;2.10;;;11.60;99.90;;;;;;5113400;27;20168;-66
2023/03/18 02:08:54;;;;;;;6.30;1.63;;;11.50;99.90;;;;;;5111712;28;20257;-65
2023/03/18 02:11:22;;;;;;;5.43;1.80;;;11.50;99.90;;;;;;5111750;27;20186;-65
2023/03/18 02:13:48;;;;;;;9.67;1.77;;;11.50;99.90;;;;;;5111716;28;20179;-65
2023/03/18 02:16:24;;;;;;;10.77;2.63;;;11.60;99.90;;;;;;5119909;28;20267;-65
2023/03/18 02:18:58;;;;;;;11.07;1.97;;;11.50;99.90;;;;;;5119574;27;20185;-65
2023/03/18 02:22:05;;;;;;;8.00;1.93;;;11.50;99.90;;;;;;5130234;28;20169;-65
2023/03/18 02:24:52;;;;;;;9.87;2.30;;;11.50;99.90;;;;;;5016557;28;20217;-65
2023/03/18 02:27:26;;;;;;;8.40;2.00;;;11.40;99.90;;;;;;5026227;28;20198;-66
2023/03/18 02:29:56;;;;;;;8.70;1.87;;;11.50;99.90;;;;;;5097425;28;20632;-65
2023/03/18 02:32:29;;;;;;;8.50;1.80;;;11.40;99.90;;;;;;5130534;28;20655;-65
2023/03/18 02:34:56;;;;;;;11.00;2.10;;;11.40;99.90;;;;;;5130667;27;20190;-65
2023/03/18 02:37:22;;;;;;;8.07;2.17;;;11.40;99.90;;;;;;5131006;28;20280;-65
2023/03/18 02:39:48;;;;;;;9.97;2.13;;;11.40;99.90;;;;;;5129359;28;20253;-66
2023/03/18 02:42:13;;;;;;;6.97;1.77;;;11.40;99.90;;;;;;5130420;28;20645;-65
2023/03/18 02:44:43;;;;;;;8.33;1.93;;;11.40;99.90;;;;;;5130064;28;20158;-65
2023/03/18 02:47:16;;;;;;;5.50;2.00;;;11.40;99.90;;;;;;5131513;28;20186;-65
2023/03/18 02:49:41;;;;;;;5.07;1.43;;;11.30;99.90;;;;;;5130731;28;20167;-66
2023/03/18 02:52:07;;;;;;;9.13;2.17;;;11.30;99.90;;;;;;5128938;28;20179;-66
2023/03/18 02:54:33;;;;;;;9.33;2.00;;;11.40;99.90;;;;;;5091901;28;20306;-66
2023/03/18 02:56:59;;;;;;;5.87;1.60;;;11.40;99.90;;;;;;5127419;28;20294;-66
2023/03/18 02:59:25;;;;;;;7.17;1.80;;;11.30;99.90;;;;;;5130165;28;20517;-64
2023/03/18 03:01:52;;;;;;;6.03;1.40;;;11.40;99.90;;;;;;5121802;28;20179;-65
2023/03/18 03:04:22;;;;;;;2.47;1.10;;;11.40;99.90;;;;;;5110892;28;20171;-65
2023/03/18 03:06:48;;;;;;;5.87;1.47;;;11.40;99.90;;;;;;5118646;27;20179;-65
2023/03/18 03:09:15;;;;;;;6.73;1.50;;;11.40;99.90;;;;;;5125746;27;20175;-64
2023/03/18 03:11:43;;;;;;;10.13;1.70;;;11.40;99.90;;;;;;5114032;27;20171;-64
2023/03/18 03:14:09;;;;;;;5.20;1.50;;;11.40;99.90;;;;;;5113660;28;20190;-65
2023/03/18 03:16:36;;;;;;;7.53;1.77;;;11.40;99.90;;;;;;5134648;27;20699;-65
2023/03/18 03:19:04;;;;;;;8.20;1.50;;;11.40;99.90;;;;;;5126664;27;20231;-65
2023/03/18 03:21:31;;;;;;;8.93;1.83;;;11.30;99.90;;;;;;5127277;27;20179;-65
2023/03/18 03:23:57;;;;;;;9.30;1.63;;;11.20;99.90;;;;;;5121646;27;20179;-65
2023/03/18 03:26:23;;;;;;;7.70;1.50;;;11.20;99.90;;;;;;5119998;27;20179;-65
2023/03/18 03:28:49;;;;;;;12.60;1.87;;;11.40;99.90;;;;;;5131224;27;20166;-65
2023/03/18 03:31:16;;;;;;;7.87;1.93;;;11.40;99.90;;;;;;5115702;27;20191;-65
2023/03/18 03:33:42;;;;;;;10.90;2.17;;;11.40;99.90;;;;;;5124177;27;20206;-66
2023/03/18 03:36:11;;;;;;;10.23;2.13;;;11.50;99.90;;;;;;5134300;27;20202;-65
2023/03/18 03:38:37;;;;;;;11.03;1.73;;;11.40;99.90;;;;;;5130766;27;20257;-66
2023/03/18 03:41:04;;;;;;;10.40;1.90;;;11.40;99.90;;;;;;5116953;27;20374;-65
2023/03/18 03:43:31;;;;;;;15.13;2.23;;;11.40;99.90;;;;;;5114278;28;20176;-66
2023/03/18 03:45:57;;;;;;;18.17;2.20;;;11.30;99.90;;;;;;5114143;27;20173;-65
2023/03/18 03:48:23;;;;;;;9.43;1.57;;;11.30;99.90;;;;;;5113366;27;20171;-65
2023/03/18 03:50:50;;;;;;;11.77;2.30;;;11.40;99.90;;;;;;5099652;28;20172;-65
2023/03/18 03:53:15;;;;;;;12.13;2.03;;;11.30;99.90;;;;;;5133153;27;20182;-65
2023/03/18 03:55:41;;;;;;;11.60;2.20;;;11.20;99.90;;;;;;5120367;27;20215;-66
2023/03/18 03:58:08;;;;;;;11.23;1.90;;;11.20;99.90;;;;;;5114005;28;20681;-66
2023/03/18 04:00:34;;;;;;;15.17;2.10;;;11.20;99.90;;;;;;5128279;27;20396;-65
2023/03/18 04:02:59;;;;;;;9.60;1.83;;;11.20;99.90;;;;;;5111984;28;20597;-64
2023/03/18 04:05:25;;;;;;;14.63;2.20;;;11.20;99.90;;;;;;5113451;27;20183;-65
2023/03/18 04:07:52;;;;;;;14.07;1.73;;;11.20;99.90;;;;;;5112858;28;20579;-65
2023/03/18 04:10:19;;;;;;;9.73;1.70;;;11.10;99.90;;;;;;5131091;27;20214;-65
2023/03/18 04:12:46;;;;;;;13.43;2.10;;;11.10;99.90;;;;;;5133777;27;20210;-65
2023/03/18 04:15:13;;;;;;;13.37;2.57;;;11.00;99.90;;;;;;5134186;27;20171;-65
2023/03/18 04:17:39;;;;;;;15.90;2.47;;;11.00;99.90;;;;;;5128885;27;20206;-65
2023/03/18 04:20:06;;;;;;;14.73;1.93;;;11.00;99.90;;;;;;5134228;27;20539;-65
2023/03/18 04:22:31;;;;;;;14.93;2.20;;;10.90;99.90;;;;;;5133428;27;20166;-65
2023/03/18 04:24:57;;;;;;;12.13;1.90;;;10.90;99.90;;;;;;5113263;27;20661;-66
2023/03/18 04:27:24;;;;;;;14.10;1.90;;;10.90;99.90;;;;;;5095048;28;20643;-66
2023/03/18 04:29:49;;;;;;;14.10;2.20;;;10.90;99.90;;;;;;5112531;28;20167;-66
2023/03/18 04:32:15;;;;;;;14.53;1.83;;;10.90;99.90;;;;;;5112117;28;20198;-66
2023/03/18 04:34:41;;;;;;;12.77;2.10;;;11.00;99.90;;;;;;5122380;27;20167;-66
2023/03/18 04:37:07;;;;;;;8.03;1.60;;;10.90;99.90;;;;;;5133564;27;20206;-66
2023/03/18 04:39:33;;;;;;;15.23;2.23;;;10.90;99.90;;;;;;5134167;27;20166;-66
2023/03/18 04:41:59;;;;;;;9.53;1.90;;;11.00;99.90;;;;;;5133686;27;20311;-65
2023/03/18 04:44:25;;;;;;;12.90;1.83;;;11.00;99.90;;;;;;5133701;27;20201;-66
2023/03/18 04:46:52;;;;;;;13.07;2.00;;;10.90;99.90;;;;;;5133372;27;20562;-66
2023/03/18 04:49:18;;;;;;;14.47;1.60;;;11.00;99.90;;;;;;5130890;27;20182;-66
2023/03/18 04:51:45;;;;;;;10.13;1.83;;;11.00;99.90;;;;;;5131764;27;20189;-65
2023/03/18 04:54:11;;;;;;;12.70;2.33;;;11.00;99.90;;;;;;5119981;27;20218;-66
2023/03/18 04:56:38;;;;;;;16.57;2.30;;;11.00;99.90;;;;;;5130176;27;20238;-66
2023/03/18 04:59:04;;;;;;;9.07;1.67;;;11.00;99.90;;;;;;5126013;27;20183;-66
2023/03/18 05:01:31;;;;;;;15.37;2.10;;;11.00;99.90;;;;;;5131380;27;20201;-66
2023/03/18 05:03:56;;;;;;;10.00;2.10;;;11.00;99.90;;;;;;5116353;27;20181;-66
2023/03/18 05:06:25;;;;;;;12.33;2.20;;;11.10;99.90;;;;;;5127674;27;20167;-65
2023/03/18 05:08:51;;;;;;;8.70;1.97;;;11.00;99.90;;;;;;5112846;27;20252;-65
2023/03/18 05:11:18;;;;;;;11.67;1.83;;;10.80;99.90;;;;;;5117134;27;20183;-65
2023/03/18 05:13:44;;;;;;;10.33;2.33;;;11.00;99.90;;;;;;5131340;27;20166;-65
2023/03/18 05:16:10;;;;;;;12.03;2.03;;;11.00;99.90;;;;;;5120978;27;20367;-65
2023/03/18 05:18:36;;;;;;;13.13;2.43;;;11.00;99.90;;;;;;5112439;27;20175;-65
2023/03/18 05:21:04;;;;;;;14.03;2.47;;;11.00;99.90;;;;;;5116262;27;20177;-65
2023/03/18 05:23:30;;;;;;;7.70;1.90;;;11.00;99.90;;;;;;5109700;27;20285;-65
2023/03/18 05:25:56;;;;;;;9.77;2.43;;;11.00;99.90;;;;;;5124643;27;20222;-65
2023/03/18 05:28:22;;;;;;;12.80;2.03;;;10.90;99.90;;;;;;5124010;27;20175;-65
2023/03/18 05:30:47;;;;;;;13.13;2.27;;;10.90;99.90;;;;;;5109521;27;20174;-65
2023/03/18 05:33:13;;;;;;;9.73;1.83;;;11.00;99.90;;;;;;5132341;27;20185;-66
2023/03/18 05:35:39;;;;;;;13.67;2.20;;;10.90;99.90;;;;;;5132303;27;20663;-67
2023/03/18 05:38:06;;;;;;;15.10;2.40;;;10.90;99.90;;;;;;5104324;28;20211;-66
2023/03/18 05:40:32;;;;;;;13.17;2.23;;;11.10;99.90;;;;;;5112140;27;20186;-66
2023/03/18 05:42:58;;;;;;;12.13;2.13;;;10.90;99.90;;;;;;5112387;27;20171;-66
2023/03/18 05:45:23;;;;;;;11.33;2.53;;;10.90;99.90;;;;;;5132363;27;20646;-66
2023/03/18 05:47:49;;;;;;;15.67;2.13;;;10.90;99.90;;;;;;5131929;27;20206;-66
2023/03/18 05:50:40;;;;;;;12.97;1.93;;;10.90;99.90;;;;;;5129523;27;20166;-66
2023/03/18 05:53:07;;;;;;;13.70;2.07;;;10.90;99.90;;;;;;5122702;27;20672;-66
2023/03/18 05:55:34;;;;;;;11.07;2.03;;;10.90;99.90;;;;;;5128702;27;20700;-66
2023/03/18 05:57:59;;;;;;;10.60;2.00;;;10.90;99.90;;;;;;5130074;27;20202;-66
2023/03/18 06:00:28;;;;;;;10.37;1.93;;;10.90;99.90;;;;;;5121589;27;20237;-66
2023/03/18 06:02:58;;;;;;;13.63;1.87;;;10.90;99.90;;;;;;5130573;27;20218;-66
2023/03/18 06:05:24;;;;;;;11.97;1.87;;;11.00;99.90;;;;;;5130588;27;20208;-66
2023/03/18 06:07:52;;;;;;;8.23;2.10;;;11.00;99.90;;;;;;5103293;28;20262;-66
2023/03/18 06:10:19;;;;;;;12.00;2.17;;;10.90;99.90;;;;;;5111864;28;20200;-66
2023/03/18 06:12:44;;;;;;;12.43;2.23;;;11.10;99.90;;;;;;5128597;27;20624;-66
2023/03/18 06:15:12;;;;;;;10.70;1.83;;;10.90;99.90;;;;;;5128692;27;20185;-66
2023/03/18 06:17:38;;;;;;;12.60;2.43;;;;;;;;;;5119677;27;20557;-66
2023/03/18 06:20:07;;;;;;;15.10;2.00;;;10.90;99.90;;;;;;5129670;28;20174;-66
2023/03/18 06:22:33;;;;;;;12.13;2.30;;;10.90;99.90;;;;;;5130975;28;20736;-66
2023/03/18 06:24:58;;;;;;;10.97;2.23;;;10.90;99.90;;;;;;5115627;28;20202;-67
2023/03/18 06:27:24;;;;;;;13.23;2.40;;;10.90;99.90;;;;;;5092070;28;20191;-66
2023/03/18 06:29:50;;;;;;;16.57;2.57;;;10.90;99.90;;;;;;5110039;28;20234;-66
2023/03/18 06:32:15;;;;;;;11.93;2.30;;;11.00;99.90;;;;;;5108149;28;20162;-66
2023/03/18 06:34:41;;;;;;;17.33;2.50;;;11.00;99.90;;;;;;5123002;28;20193;-68
2023/03/18 06:37:08;;;;;;;13.77;2.43;;;11.00;99.90;;;;;;5129604;28;20202;-66
2023/03/18 06:39:34;;;;;;;20.73;2.50;;;11.10;99.90;;;;;;5130143;27;20253;-66
2023/03/18 06:42:00;;;;;;;19.47;2.97;;;11.00;99.90;;;;;;5134877;27;20174;-66
2023/03/18 06:44:26;;;;;;;17.67;2.70;;;11.10;99.90;;;;;;5134506;27;20173;-67
2023/03/18 06:46:52;;;;;;;15.70;2.97;;;11.00;99.90;;;;;;5134256;27;20176;-66
2023/03/18 06:49:18;;;;;;;15.00;2.83;;;11.10;99.90;;;;;;5122445;27;20533;-66
2023/03/18 06:51:44;;;;;;;16.90;3.13;;;11.10;99.90;;;;;;5130389;27;20171;-65
2023/03/18 06:54:09;;;;;;;10.57;2.57;;;11.10;99.90;;;;;;5118603;27;20309;-65
2023/03/18 06:56:40;;;;;;;15.87;2.60;;;11.20;99.90;;;;;;5118665;27;20235;-65
2023/03/18 06:59:06;;;;;;;15.83;2.90;;;11.20;99.90;;;;;;5125738;27;20273;-65
2023/03/18 07:01:33;;;;;;;19.23;3.33;;;11.20;99.90;;;;;;5121427;27;20175;-65
2023/03/18 07:03:59;;;;;;;20.93;2.90;;;11.30;99.90;;;;;;5132257;27;20163;-65
2023/03/18 07:06:29;;;;;;;16.40;2.40;;;11.40;99.90;;;;;;5122953;27;20661;-66
2023/03/18 07:08:55;;;;;;;16.73;2.60;;;11.40;99.90;;;;;;5118358;27;20179;-66
2023/03/18 07:11:21;;;;;;;19.37;3.13;;;11.40;99.90;;;;;;5132782;27;20552;-66
2023/03/18 07:13:47;;;;;;;14.57;3.27;;;11.40;99.90;;;;;;5133707;27;20251;-65
2023/03/18 07:16:13;;;;;;;20.50;3.37;;;11.40;99.90;;;;;;5133073;27;20685;-66
2023/03/18 07:18:39;;;;;;;18.60;3.07;;;11.50;99.90;;;;;;5129899;27;20637;-66
2023/03/18 07:21:05;;;;;;;17.23;2.63;;;11.60;99.90;;;;;;5114990;27;20159;-66
2023/03/18 07:23:31;;;;;;;17.97;3.17;;;11.60;99.90;;;;;;5115382;27;20676;-67
2023/03/18 07:25:56;;;;;;;20.43;2.70;;;11.60;99.90;;;;;;5129977;27;20195;-66
2023/03/18 07:28:22;;;;;;;18.37;3.00;;;11.50;99.90;;;;;;5125769;27;20194;-66
2023/03/18 07:30:48;;;;;;;14.67;2.43;;;11.80;99.90;;;;;;5113254;27;20209;-66
2023/03/18 07:33:14;;;;;;;14.37;2.70;;;11.70;99.90;;;;;;5118194;27;20197;-66
2023/03/18 07:35:40;;;;;;;14.63;2.33;;;11.80;99.90;;;;;;5132281;27;20206;-66
2023/03/18 07:38:09;;;;;;;21.13;2.97;;;12.10;99.90;;;;;;5121632;27;20744;-67
2023/03/18 07:40:36;;;;;;;21.27;3.13;;;11.90;99.90;;;;;;5130078;27;20194;-67
2023/03/18 07:43:05;;;;;;;18.60;2.93;;;12.00;99.90;;;;;;5133131;27;20170;-67
2023/03/18 07:45:32;;;;;;;13.03;2.40;;;12.10;99.90;;;;;;5113992;27;20205;-66
2023/03/18 07:47:57;;;;;;;9.43;2.00;;;12.20;99.90;;;;;;5120679;27;20173;-66
2023/03/18 07:50:23;;;;;;;14.53;2.10;;;12.20;99.90;;;;;;5125907;27;20175;-66
2023/03/18 07:52:49;;;;;;;12.53;2.60;;;12.20;99.90;;;;;;5128497;27;20541;-66
2023/03/18 07:55:14;;;;;;;8.50;1.77;;;12.20;99.90;;;;;;5116735;27;20673;-65
2023/03/18 07:57:40;;;;;;;11.83;2.37;;;12.20;99.90;;;;;;5122790;27;20289;-65
2023/03/18 08:00:09;;;;;;;8.90;1.53;;;12.40;99.90;;;;;;5134115;27;20197;-64
2023/03/18 08:02:35;;;;;;;12.23;2.30;;;12.70;99.90;;;;;;5131149;27;20262;-64
2023/03/18 08:05:02;;;;;;;15.27;2.17;;;12.80;99.90;;;;;;5124842;27;20262;-64
2023/03/18 08:07:28;;;;;;;18.17;2.40;;;12.20;99.90;;;;;;5131973;27;20179;-66
2023/03/18 08:09:54;;;;;;;15.57;2.37;;;12.30;99.90;;;;;;5097420;27;20272;-64
2023/03/18 08:12:20;;;;;;;14.50;2.53;;;12.30;99.90;;;;;;5127566;27;20186;-64
2023/03/18 08:14:47;;;;;;;10.60;1.90;;;12.50;99.90;;;;;;5112044;27;20182;-64
2023/03/18 08:17:13;;;;;;;16.23;2.10;;;12.70;99.90;;;;;;5120511;27;20254;-64
2023/03/18 08:19:38;;;;;;;17.30;2.10;;;12.80;99.90;;;;;;5133925;27;20166;-64
2023/03/18 08:22:04;;;;;;;11.70;2.00;;;12.90;99.90;;;;;;5124997;27;20171;-64
2023/03/18 08:24:30;;;;;;;18.23;2.30;;;12.90;99.90;;;;;;5116189;27;20731;-65
2023/03/18 08:26:56;;;;;;;15.37;2.53;;;;;;;;;;5113327;28;20528;-64
2023/03/18 08:29:22;;;;;;;18.70;3.07;;;13.00;99.90;;;;;;5112011;28;20160;-64
2023/03/18 08:31:48;;;;;;;16.80;2.57;;;12.90;99.90;;;;;;5112366;28;20217;-67
2023/03/18 08:34:14;;;;;;;17.33;2.47;;;13.00;99.90;;;;;;5121290;27;20179;-64
2023/03/18 08:36:41;;;;;;;8.80;2.10;;;13.20;99.90;;;;;;5131523;27;20225;-65
2023/03/18 08:39:08;;;;;;;15.03;2.27;;;13.20;99.90;;;;;;5131736;27;20155;-64
2023/03/18 08:41:34;;;;;;;16.17;2.67;;;13.50;99.90;;;;;;5121721;27;20232;-64
2023/03/18 08:44:01;;;;;;;13.93;2.17;;;13.70;99.90;;;;;;5125339;27;20716;-66
2023/03/18 08:46:27;;;;;;;18.43;2.23;;;13.70;99.90;;;;;;5146885;27;20202;-65
2023/03/18 08:48:53;;;;;;;18.05;2.50;;;14.10;99.90;;;;;;5133190;27;20209;-66
2023/03/18 08:51:21;;;;;;;16.73;2.60;;;13.80;99.90;;;;;;5132823;27;20190;-65
2023/03/18 08:53:46;;;;;;;16.85;2.17;;;13.80;99.90;;;;;;5122154;27;20200;-68
2023/03/18 08:56:13;;;;;;;17.23;2.75;;;13.90;99.90;;;;;;5126396;27;20175;-64
2023/03/18 08:58:39;;;;;;;15.13;2.35;;;14.00;99.90;;;;;;5122138;27;20197;-65
2023/03/18 09:01:06;;;;;;;14.55;2.70;;;;;;;;;;5128059;27;20626;-65
2023/03/18 09:03:33;;;;;;;20.40;2.58;;;14.20;99.90;;;;;;5119283;27;20166;-66
2023/03/18 09:05:59;;;;;;;15.98;2.55;;;14.30;99.90;;;;;;5111351;28;20641;-65
2023/03/18 09:08:25;;;;;;;10.10;2.20;;;14.20;99.90;;;;;;5111788;28;20183;-65
2023/03/18 09:10:55;;;;;;;18.50;2.53;;;14.40;99.90;;;;;;5111283;28;20175;-65
2023/03/18 09:13:21;;;;;;;13.48;2.20;;;14.60;99.90;;;;;;5111401;28;20172;-65
2023/03/18 09:15:47;;;;;;;14.10;2.40;;;14.90;99.90;;;;;;5111172;28;20167;-65
2023/03/18 09:18:14;;;;;;;18.48;2.72;;;15.10;99.90;;;;;;5111695;28;20687;-66
2023/03/18 09:20:40;;;;;;;13.95;2.25;;;15.40;99.90;;;;;;5093527;28;20172;-66
2023/03/18 09:23:07;;;;;;;17.20;2.50;;;15.70;99.90;;;;;;5111727;28;20171;-68
2023/03/18 09:25:33;;;;;;;17.02;2.88;;;15.50;99.90;;;;;;5113693;27;20181;-70
2023/03/18 09:27:59;;;;;;;21.95;2.67;;;15.60;99.90;;;;;;5109447;27;20424;-69
2023/03/18 09:30:26;;;;;;;14.80;2.35;;;15.50;99.90;;;;;;5116095;27;20199;-68
2023/03/18 09:32:53;;;;;;;17.80;2.38;;;15.20;99.90;;;;;;5126653;27;20175;-69
2023/03/18 09:35:19;;;;;;;12.25;2.08;;;15.20;99.90;;;;;;5118530;27;20210;-68
2023/03/18 09:37:45;;;;;;;12.95;2.17;;;14.90;99.90;;;;;;5125576;27;20246;-68
2023/03/18 09:40:22;;;;;;;9.77;1.95;;;14.80;99.90;;;;;;5118675;27;20176;-68
2023/03/18 09:43:18;;;;;;;12.00;2.03;;;14.80;99.90;;;;;;5131079;27;20204;-67
2023/03/18 09:45:49;;;;;;;14.07;1.73;;;14.70;99.90;;;;;;5093236;28;20199;-68
2023/03/18 09:48:33;;;;;;;12.02;1.67;;;14.30;99.90;;;;;;5093343;28;20206;-68
2023/03/18 09:51:36;;;;;;;5.07;1.25;;;14.30;99.90;;;;;;5118166;27;20285;-68
2023/03/18 09:54:11;;;;;;;9.30;1.52;;;14.30;99.90;;;;;;5118620;27;20237;-68
2023/03/18 09:56:38;;;;;;;7.50;0.90;;;14.30;99.90;;;;;;5119824;27;20209;-68
2023/03/18 09:59:36;;;;;;;9.00;1.52;;;14.40;99.90;;;;;;5116448;27;20182;-68
2023/03/18 10:02:17;;;;;;;7.20;1.02;;;15.20;99.90;;;;;;5111246;28;20213;-68
2023/03/18 10:04:48;;;;;;;5.68;0.98;;;14.90;99.90;;;;;;5111465;28;20170;-68
2023/03/18 10:07:18;;;;;;;4.57;0.90;;;15.10;99.90;;;;;;5111425;28;20160;-68
2023/03/18 10:09:51;;;;;;;6.22;1.00;;;15.20;99.90;;;;;;5111251;28;20179;-68
2023/03/18 10:12:34;;;;;;;5.35;1.00;;;15.80;99.90;;;;;;5110642;28;20605;-68
2023/03/18 10:15:09;;;;;;;12.30;1.60;;;16.30;99.90;;;;;;5110750;28;20585;-67
2023/03/18 10:17:48;;;;;;;9.25;2.05;;;16.40;99.90;;;;;;5109559;27;20246;-68
2023/03/18 10:20:16;;;;;;;11.05;1.75;;;16.30;99.90;;;;;;5127133;28;20332;-68
2023/03/18 10:22:49;;;;;;;6.20;1.35;;;15.70;99.90;;;;;;5124144;28;20186;-67
2023/03/18 10:25:56;;;;;;;6.00;1.52;;;16.90;99.90;;;;;;5118650;28;21384;-67
2023/03/18 10:28:46;;;;;;;9.80;1.50;;;16.90;99.90;;;;;;5131423;27;20652;-68
2023/03/18 10:31:43;;;;;;;5.78;1.40;;;19.70;99.90;;;;;;5130955;28;20185;-68
2023/03/18 10:34:20;;;;;;;6.97;1.58;;;22.00;99.90;;;;;;5118569;28;20231;-68
2023/03/18 10:37:00;;;;;;;6.50;1.30;;;23.60;99.90;;;;;;5130857;28;20205;-70
2023/03/18 10:39:27;;;;;;;7.05;1.40;;;23.90;99.90;;;;;;5130415;28;20231;-68
2023/03/18 10:41:54;;;;;;;5.80;1.17;;;23.50;99.90;;;;;;5131160;28;20201;-68
2023/03/18 10:44:37;;;;;;;4.03;0.77;;;21.40;99.90;;;;;;5128968;28;20181;-69
2023/03/18 10:47:08;;;;;;;3.78;0.80;;;19.20;99.90;;;;;;5130737;28;20612;-66
2023/03/18 10:49:39;;;;;;;2.40;0.60;;;17.00;99.90;;;;;;5124365;28;20243;-69
2023/03/18 10:52:33;;;;;;;6.63;1.17;;;17.00;99.90;;;;;;5128012;28;20242;-68
2023/03/18 10:54:58;;;;;;;6.47;1.05;;;16.40;99.90;;;;;;5111811;28;20301;-68
2023/03/18 10:57:25;;;;;;;6.18;1.00;;;16.20;99.90;;;;;;5130325;27;20650;-68
2023/03/18 10:59:51;;;;;;;7.68;1.10;;;16.00;99.90;;;;;;5118593;28;20166;-68
2023/03/18 11:02:19;;;;;;;4.93;0.95;;;15.70;99.90;;;;;;5130848;28;20544;-66
2023/03/18 11:04:56;;;;;;;6.35;1.30;;;15.60;99.90;;;;;;5122275;28;20177;-67
2023/03/18 11:07:25;;;;;;;5.47;1.15;;;15.50;99.90;;;;;;5130903;28;20625;-66
2023/03/18 11:09:52;;;;;;;3.80;1.20;;;15.50;99.90;;;;;;5130859;28;20340;-66
2023/03/18 11:12:26;;;;;;;6.32;0.90;;;15.60;99.90;;;;;;5130342;28;20206;-66
2023/03/18 11:14:52;;;;;;;4.65;1.05;;;15.70;99.90;;;;;;5128750;28;20253;-66
2023/03/18 11:17:22;;;;;;;5.53;0.80;;;16.10;99.90;;;;;;5127823;28;20215;-67
2023/03/18 11:20:23;;;;;;;8.95;0.73;;;18.70;99.90;;;;;;5105599;28;20209;-67
2023/03/18 11:22:51;;;;;;;2.33;0.75;;;20.20;99.90;;;;;;5115465;28;20191;-67
2023/03/18 11:25:24;;;;;;;4.93;0.98;;;21.10;99.90;;;;;;5117187;28;20179;-67
2023/03/18 11:28:04;;;;;;;6.53;1.27;;;20.60;99.90;;;;;;5116506;27;20166;-67
2023/03/18 11:30:43;;;;;;;2.50;0.70;;;22.70;99.90;;;;;;5104759;27;20693;-68
2023/03/18 11:33:14;;;;;;;3.88;0.88;;;22.20;99.90;;;;;;5123360;27;20196;-67
2023/03/18 11:35:50;;;;;;;3.13;0.98;;;20.40;99.90;;;;;;5126321;27;20191;-67
2023/03/18 11:38:26;;;;;;;4.60;1.50;;;19.40;99.90;;;;;;5120514;27;20663;-67
2023/03/18 11:40:51;;;;;;;3.97;0.80;;;21.30;99.90;;;;;;5129437;27;20281;-68
2023/03/18 11:43:22;;;;;;;3.15;0.93;;;21.60;99.90;;;;;;5113293;27;20256;-67
2023/03/18 11:45:49;;;;;;;1.73;0.63;;;21.50;99.90;;;;;;5114459;27;20205;-67
2023/03/18 11:48:28;;;;;;;1.85;0.65;;;21.10;99.90;;;;;;5117388;27;20182;-68
2023/03/18 11:51:12;;;;;;;1.48;0.60;;;21.00;99.90;;;;;;5129382;27;20253;-68
2023/03/18 11:53:59;;;;;;;1.17;0.52;;;20.20;99.90;;;;;;5114857;27;20171;-67
2023/03/18 11:56:31;;;;;;;7.20;0.70;;;18.90;99.90;;;;;;5128365;27;20680;-67
2023/03/18 11:58:59;;;;;;;4.50;0.70;;;18.00;99.90;;;;;;5127800;27;20190;-67
2023/03/18 12:01:57;;;;;;;1.77;0.50;;;17.90;99.90;;;;;;5133762;27;20162;-68
2023/03/18 12:04:37;;;;;;;8.18;0.90;;;17.70;99.90;;;;;;5133579;27;20181;-67
2023/03/18 12:07:11;;;;;;;1.50;0.60;;;18.10;99.90;;;;;;5113840;27;20180;-68
2023/03/18 12:10:06;;;;;;;3.00;0.70;;;17.80;99.90;;;;;;5132474;27;20233;-67
2023/03/18 12:12:55;;;;;;;2.30;0.75;;;17.50;99.90;;;;;;5132965;27;20266;-67
2023/03/18 12:15:32;;;;;;;2.35;0.98;;;17.90;99.90;;;;;;5127790;27;20217;-68
2023/03/18 12:18:15;;;;;;;2.42;1.10;;;18.50;99.90;;;;;;5132208;27;20301;-68
2023/03/18 12:20:49;;;;;;;3.53;1.13;;;17.90;99.90;;;;;;5134213;27;20170;-68
2023/03/18 12:23:38;;;;;;;2.47;0.95;;;16.70;99.90;;;;;;5129027;27;20178;-68
2023/03/18 12:26:22;;;;;;;5.20;1.40;;;16.80;99.90;;;;;;5133476;27;20265;-68
2023/03/18 12:29:27;;;;;;;3.25;1.13;;;19.60;99.90;;;;;;5120793;27;20180;-68
2023/03/18 12:32:17;;;;;;;3.67;1.00;;;21.70;99.90;;;;;;5115634;27;20709;-68
2023/03/18 12:35:37;;;;;;;1.83;0.80;;;22.70;99.90;;;;;;5112924;28;20580;-69
2023/03/18 12:38:21;;;;;;;3.88;1.33;;;22.40;99.90;;;;;;5100845;28;20247;-69
2023/03/18 12:41:08;;;;;;;3.22;1.25;;;22.50;99.90;;;;;;5112801;28;20178;-68
2023/03/18 12:43:56;;;;;;;2.10;1.13;;;21.90;99.90;;;;;;5112663;28;20175;-68
2023/03/18 12:46:29;;;;;;;3.00;1.15;;;20.60;99.90;;;;;;5113469;28;20692;-68
2023/03/18 12:49:36;;;;;;;4.15;1.27;;;20.30;99.90;;;;;;5130609;27;20279;-68
2023/03/18 12:52:08;;;;;;;3.47;1.17;;;19.20;99.90;;;;;;5048955;28;20185;-68
2023/03/18 12:55:09;;;;;;;2.03;0.82;;;20.70;99.90;;;;;;5118786;27;20696;-68
2023/03/18 12:58:09;;;;;;;2.30;0.60;;;21.40;99.90;;;;;;5087642;27;20218;-68